sensor_id;sensor_type;location;lat;lon;timestamp;temperature;humidity
2633;DHT22;1326;48.692;16.870;2022-07-23T16:28:55;32.70;52.60
2633;DHT22;1326;48.692;16.870;2022-07-23T16:33:58;32.50;52.10
2633;DHT22;1326;48.692;16.870;2022-07-23T16:36:27;32.50;52.40
2633;DHT22;1326;48.692;16.870;2022-07-23T16:38:54;32.60;51.70
2633;DHT22;1326;48.692;16.870;2022-07-23T16:41:22;32.60;51.50
2633;DHT22;1326;48.692;16.870;2022-07-23T16:43:50;32.50;51.50
2633;DHT22;1326;48.692;16.870;2022-07-23T16:46:17;32.40;51.60
2633;DHT22;1326;48.692;16.870;2022-07-23T16:48:45;32.40;52.10
2633;DHT22;1326;48.692;16.870;2022-07-23T16:51:13;32.40;52.50
2633;DHT22;1326;48.692;16.870;2022-07-23T16:53:40;32.30;52.80
2633;DHT22;1326;48.692;16.870;2022-07-23T16:56:09;32.10;53.10
2633;DHT22;1326;48.692;16.870;2022-07-23T16:58:37;32.00;53.60
2633;DHT22;1326;48.692;16.870;2022-07-23T17:01:04;31.90;53.80
2633;DHT22;1326;48.692;16.870;2022-07-23T17:03:32;31.80;54.60
2633;DHT22;1326;48.692;16.870;2022-07-23T17:06:01;31.70;54.30
2633;DHT22;1326;48.692;16.870;2022-07-23T17:08:29;31.60;54.50
2633;DHT22;1326;48.692;16.870;2022-07-23T17:10:57;31.60;54.80
2633;DHT22;1326;48.692;16.870;2022-07-23T17:13:25;31.50;55.00
2633;DHT22;1326;48.692;16.870;2022-07-23T17:15:53;31.50;55.20
2633;DHT22;1326;48.692;16.870;2022-07-23T17:18:22;31.50;55.50
2633;DHT22;1326;48.692;16.870;2022-07-23T17:20:50;31.40;55.90
2633;DHT22;1326;48.692;16.870;2022-07-23T17:23:18;31.40;56.40
2633;DHT22;1326;48.692;16.870;2022-07-23T17:25:46;31.30;56.60
2633;DHT22;1326;48.692;16.870;2022-07-23T17:28:14;31.30;56.70
2633;DHT22;1326;48.692;16.870;2022-07-23T17:30:42;31.20;56.10
2633;DHT22;1326;48.692;16.870;2022-07-23T17:33:09;31.10;55.70
2633;DHT22;1326;48.692;16.870;2022-07-23T17:35:37;31.00;55.30
2633;DHT22;1326;48.692;16.870;2022-07-23T17:38:04;30.90;54.90
2633;DHT22;1326;48.692;16.870;2022-07-23T17:40:33;30.80;55.00
2633;DHT22;1326;48.692;16.870;2022-07-23T17:43:02;30.70;55.40
2633;DHT22;1326;48.692;16.870;2022-07-23T17:45:30;30.60;55.90
2633;DHT22;1326;48.692;16.870;2022-07-23T17:47:57;30.60;56.40
2633;DHT22;1326;48.692;16.870;2022-07-23T17:50:25;30.50;56.80
2633;DHT22;1326;48.692;16.870;2022-07-23T17:52:55;30.40;57.00
2633;DHT22;1326;48.692;16.870;2022-07-23T17:55:24;30.30;57.30
2633;DHT22;1326;48.692;16.870;2022-07-23T17:57:53;30.20;57.40
2633;DHT22;1326;48.692;16.870;2022-07-23T18:00:23;30.20;57.80
2633;DHT22;1326;48.692;16.870;2022-07-23T18:02:51;30.10;58.00
2633;DHT22;1326;48.692;16.870;2022-07-23T18:05:20;30.00;58.30
2633;DHT22;1326;48.692;16.870;2022-07-23T18:07:47;30.00;58.70
2633;DHT22;1326;48.692;16.870;2022-07-23T18:10:15;30.00;58.90
2633;DHT22;1326;48.692;16.870;2022-07-23T18:12:44;29.90;59.20
2633;DHT22;1326;48.692;16.870;2022-07-23T18:15:11;29.90;59.40
2633;DHT22;1326;48.692;16.870;2022-07-23T18:17:39;29.80;59.50
2633;DHT22;1326;48.692;16.870;2022-07-23T18:20:10;29.80;59.70
2633;DHT22;1326;48.692;16.870;2022-07-23T18:22:38;29.80;60.00
2633;DHT22;1326;48.692;16.870;2022-07-23T18:25:07;29.60;60.20
2633;DHT22;1326;48.692;16.870;2022-07-23T18:27:35;29.60;60.20
2633;DHT22;1326;48.692;16.870;2022-07-23T18:30:04;29.60;60.20
2633;DHT22;1326;48.692;16.870;2022-07-23T18:32:32;29.50;60.10
2633;DHT22;1326;48.692;16.870;2022-07-23T18:35:00;29.50;59.70
2633;DHT22;1326;48.692;16.870;2022-07-23T18:37:28;29.40;59.60
2633;DHT22;1326;48.692;16.870;2022-07-23T18:39:55;29.40;60.00
2633;DHT22;1326;48.692;16.870;2022-07-23T18:42:24;29.30;60.90
2633;DHT22;1326;48.692;16.870;2022-07-23T18:44:52;29.20;61.60
2633;DHT22;1326;48.692;16.870;2022-07-23T18:47:20;29.10;62.60
2633;DHT22;1326;48.692;16.870;2022-07-23T18:49:47;28.90;63.50
2633;DHT22;1326;48.692;16.870;2022-07-23T18:52:15;28.80;64.30
2633;DHT22;1326;48.692;16.870;2022-07-23T18:54:42;28.80;65.50
2633;DHT22;1326;48.692;16.870;2022-07-23T18:57:11;28.70;66.70
2633;DHT22;1326;48.692;16.870;2022-07-23T18:59:39;28.60;67.60
2633;DHT22;1326;48.692;16.870;2022-07-23T19:02:06;28.50;68.30
2633;DHT22;1326;48.692;16.870;2022-07-23T19:04:34;28.30;68.90
2633;DHT22;1326;48.692;16.870;2022-07-23T19:07:01;28.20;69.50
2633;DHT22;1326;48.692;16.870;2022-07-23T19:09:29;28.10;69.90
2633;DHT22;1326;48.692;16.870;2022-07-23T19:11:57;28.00;70.20
2633;DHT22;1326;48.692;16.870;2022-07-23T19:14:24;27.90;70.80
2633;DHT22;1326;48.692;16.870;2022-07-23T19:16:52;27.80;71.00
2633;DHT22;1326;48.692;16.870;2022-07-23T19:19:20;27.70;71.30
2633;DHT22;1326;48.692;16.870;2022-07-23T19:21:48;27.60;71.60
2633;DHT22;1326;48.692;16.870;2022-07-23T19:24:16;27.50;71.90
2633;DHT22;1326;48.692;16.870;2022-07-23T19:26:45;27.40;72.20
2633;DHT22;1326;48.692;16.870;2022-07-23T19:29:12;27.30;72.50
2633;DHT22;1326;48.692;16.870;2022-07-23T19:31:40;27.30;72.70
2633;DHT22;1326;48.692;16.870;2022-07-23T19:34:07;27.20;73.00
2633;DHT22;1326;48.692;16.870;2022-07-23T19:36:35;27.10;73.20
2633;DHT22;1326;48.692;16.870;2022-07-23T19:39:03;27.00;73.40
2633;DHT22;1326;48.692;16.870;2022-07-23T19:41:31;26.90;73.60
2633;DHT22;1326;48.692;16.870;2022-07-23T19:43:59;26.90;74.10
2633;DHT22;1326;48.692;16.870;2022-07-23T19:46:26;26.80;74.60
2633;DHT22;1326;48.692;16.870;2022-07-23T19:48:54;26.70;74.80
2633;DHT22;1326;48.692;16.870;2022-07-23T19:51:22;26.60;74.90
2633;DHT22;1326;48.692;16.870;2022-07-23T19:53:49;26.60;75.20
2633;DHT22;1326;48.692;16.870;2022-07-23T19:56:17;26.50;75.30
2633;DHT22;1326;48.692;16.870;2022-07-23T19:58:47;26.50;75.20
2633;DHT22;1326;48.692;16.870;2022-07-23T20:01:16;26.40;75.40
2633;DHT22;1326;48.692;16.870;2022-07-23T20:03:43;26.30;75.60
2633;DHT22;1326;48.692;16.870;2022-07-23T20:06:11;26.30;76.00
2633;DHT22;1326;48.692;16.870;2022-07-23T20:08:39;26.20;76.30
2633;DHT22;1326;48.692;16.870;2022-07-23T20:11:06;26.20;76.50
2633;DHT22;1326;48.692;16.870;2022-07-23T20:13:34;26.20;76.60
2633;DHT22;1326;48.692;16.870;2022-07-23T20:16:01;26.10;76.60
2633;DHT22;1326;48.692;16.870;2022-07-23T20:18:29;26.00;76.70
2633;DHT22;1326;48.692;16.870;2022-07-23T20:20:57;26.00;77.00
2633;DHT22;1326;48.692;16.870;2022-07-23T20:23:25;26.00;77.10
2633;DHT22;1326;48.692;16.870;2022-07-23T20:25:53;26.00;77.10
2633;DHT22;1326;48.692;16.870;2022-07-23T20:28:21;26.00;77.30
2633;DHT22;1326;48.692;16.870;2022-07-23T20:30:50;26.00;77.30
2633;DHT22;1326;48.692;16.870;2022-07-23T20:33:20;26.00;77.40
2633;DHT22;1326;48.692;16.870;2022-07-23T20:35:48;26.00;77.40
2633;DHT22;1326;48.692;16.870;2022-07-23T20:38:16;26.00;77.80
2633;DHT22;1326;48.692;16.870;2022-07-23T20:40:44;25.90;77.90
2633;DHT22;1326;48.692;16.870;2022-07-23T20:43:12;25.90;78.00
2633;DHT22;1326;48.692;16.870;2022-07-23T20:45:41;25.80;78.20
2633;DHT22;1326;48.692;16.870;2022-07-23T20:48:09;25.80;78.30
2633;DHT22;1326;48.692;16.870;2022-07-23T20:50:38;25.70;78.40
2633;DHT22;1326;48.692;16.870;2022-07-23T20:53:06;25.70;78.50
2633;DHT22;1326;48.692;16.870;2022-07-23T20:55:34;25.70;78.70
2633;DHT22;1326;48.692;16.870;2022-07-23T20:58:03;25.80;78.60
2633;DHT22;1326;48.692;16.870;2022-07-23T21:00:31;25.70;78.50
2633;DHT22;1326;48.692;16.870;2022-07-23T21:02:58;25.70;78.90
2633;DHT22;1326;48.692;16.870;2022-07-23T21:05:26;25.60;78.50
2633;DHT22;1326;48.692;16.870;2022-07-23T21:07:53;25.60;79.30
2633;DHT22;1326;48.692;16.870;2022-07-23T21:10:21;25.60;80.00
2633;DHT22;1326;48.692;16.870;2022-07-23T21:12:49;25.60;79.60
2633;DHT22;1326;48.692;16.870;2022-07-23T21:15:16;25.70;79.70
2633;DHT22;1326;48.692;16.870;2022-07-23T21:17:44;25.70;79.90
2633;DHT22;1326;48.692;16.870;2022-07-23T21:20:12;25.60;80.50
2633;DHT22;1326;48.692;16.870;2022-07-23T21:22:40;25.60;80.70
2633;DHT22;1326;48.692;16.870;2022-07-23T21:25:09;25.60;80.80
2633;DHT22;1326;48.692;16.870;2022-07-23T21:27:37;25.60;81.10
2633;DHT22;1326;48.692;16.870;2022-07-23T21:30:05;25.60;81.60
2633;DHT22;1326;48.692;16.870;2022-07-23T21:32:34;25.50;81.90
2633;DHT22;1326;48.692;16.870;2022-07-23T21:35:04;25.50;82.30
2633;DHT22;1326;48.692;16.870;2022-07-23T21:37:32;25.40;82.70
2633;DHT22;1326;48.692;16.870;2022-07-23T21:39:59;25.40;82.80
2633;DHT22;1326;48.692;16.870;2022-07-23T21:42:27;25.40;82.80
2633;DHT22;1326;48.692;16.870;2022-07-23T21:44:55;25.40;83.10
2633;DHT22;1326;48.692;16.870;2022-07-23T21:47:23;25.40;83.20
2633;DHT22;1326;48.692;16.870;2022-07-23T21:49:50;25.30;83.20
2633;DHT22;1326;48.692;16.870;2022-07-23T21:52:18;25.30;83.50
2633;DHT22;1326;48.692;16.870;2022-07-23T21:54:46;25.30;83.70
2633;DHT22;1326;48.692;16.870;2022-07-23T21:57:13;25.20;86.40
2633;DHT22;1326;48.692;16.870;2022-07-23T21:59:41;24.90;91.70
2633;DHT22;1326;48.692;16.870;2022-07-23T22:02:10;24.30;96.40
2633;DHT22;1326;48.692;16.870;2022-07-23T22:04:38;23.60;99.90
2633;DHT22;1326;48.692;16.870;2022-07-23T22:07:05;23.10;99.90
2633;DHT22;1326;48.692;16.870;2022-07-23T22:09:33;22.70;99.90
2633;DHT22;1326;48.692;16.870;2022-07-23T22:12:01;22.50;99.90
2633;DHT22;1326;48.692;16.870;2022-07-23T22:14:29;22.40;99.90
2633;DHT22;1326;48.692;16.870;2022-07-23T22:16:56;22.40;99.90
2633;DHT22;1326;48.692;16.870;2022-07-23T22:19:24;22.40;99.90
2633;DHT22;1326;48.692;16.870;2022-07-23T22:21:51;22.30;99.90
2633;DHT22;1326;48.692;16.870;2022-07-23T22:24:19;22.20;99.90
2633;DHT22;1326;48.692;16.870;2022-07-23T22:26:47;22.10;99.90
2633;DHT22;1326;48.692;16.870;2022-07-23T22:29:15;22.10;99.90
2633;DHT22;1326;48.692;16.870;2022-07-23T22:31:42;22.00;99.90
2633;DHT22;1326;48.692;16.870;2022-07-23T22:34:10;21.80;99.90
2633;DHT22;1326;48.692;16.870;2022-07-23T22:36:37;21.70;99.90
2633;DHT22;1326;48.692;16.870;2022-07-23T22:39:05;21.70;99.90
2633;DHT22;1326;48.692;16.870;2022-07-23T22:41:33;21.60;99.90
2633;DHT22;1326;48.692;16.870;2022-07-23T22:44:00;21.50;99.90
2633;DHT22;1326;48.692;16.870;2022-07-23T22:46:28;21.40;99.90
2633;DHT22;1326;48.692;16.870;2022-07-23T22:48:55;21.40;99.90
2633;DHT22;1326;48.692;16.870;2022-07-23T22:51:23;21.40;99.90
2633;DHT22;1326;48.692;16.870;2022-07-23T22:53:50;21.30;99.90
2633;DHT22;1326;48.692;16.870;2022-07-23T22:56:18;21.30;99.90
2633;DHT22;1326;48.692;16.870;2022-07-23T22:58:46;21.40;99.90
2633;DHT22;1326;48.692;16.870;2022-07-23T23:01:13;21.50;99.90
2633;DHT22;1326;48.692;16.870;2022-07-23T23:03:41;21.60;99.90
2633;DHT22;1326;48.692;16.870;2022-07-23T23:06:08;21.60;99.90
2633;DHT22;1326;48.692;16.870;2022-07-23T23:08:36;21.70;99.90
2633;DHT22;1326;48.692;16.870;2022-07-23T23:11:04;21.70;99.90
2633;DHT22;1326;48.692;16.870;2022-07-23T23:13:31;21.80;99.90
2633;DHT22;1326;48.692;16.870;2022-07-23T23:15:59;21.80;99.90
2633;DHT22;1326;48.692;16.870;2022-07-23T23:18:27;21.80;99.90
2633;DHT22;1326;48.692;16.870;2022-07-23T23:20:54;21.80;99.90
2633;DHT22;1326;48.692;16.870;2022-07-23T23:23:23;21.70;99.90
2633;DHT22;1326;48.692;16.870;2022-07-23T23:25:50;21.60;99.90
2633;DHT22;1326;48.692;16.870;2022-07-23T23:28:18;21.60;99.90
2633;DHT22;1326;48.692;16.870;2022-07-23T23:30:45;21.60;99.90
2633;DHT22;1326;48.692;16.870;2022-07-23T23:33:13;21.60;99.90
2633;DHT22;1326;48.692;16.870;2022-07-23T23:35:41;21.60;99.90
2633;DHT22;1326;48.692;16.870;2022-07-23T23:38:09;21.70;99.90
2633;DHT22;1326;48.692;16.870;2022-07-23T23:40:36;21.70;99.90
2633;DHT22;1326;48.692;16.870;2022-07-23T23:43:04;21.70;99.90
2633;DHT22;1326;48.692;16.870;2022-07-23T23:45:31;21.70;99.90
2633;DHT22;1326;48.692;16.870;2022-07-23T23:47:59;21.70;99.90
2633;DHT22;1326;48.692;16.870;2022-07-23T23:50:26;21.70;99.90
2633;DHT22;1326;48.692;16.870;2022-07-23T23:52:54;21.60;99.90
2633;DHT22;1326;48.692;16.870;2022-07-23T23:55:23;21.70;99.90
2633;DHT22;1326;48.692;16.870;2022-07-23T23:57:51;21.60;99.90
